sensor_id;sensor_type;location;lat;lon;timestamp;P1;durP1;ratioP1;P2;durP2;ratioP2
52620;SDS011;38515;53.160;6.990;2023-07-16T00:00:02;302.33;;;289.65;;
52620;SDS011;38515;53.160;6.990;2023-07-16T00:02:29;209.23;;;200.77;;
52620;SDS011;38515;53.160;6.990;2023-07-16T00:04:55;255.63;;;244.63;;
52620;SDS011;38515;53.160;6.990;2023-07-16T00:07:21;230.52;;;221.25;;
52620;SDS011;38515;53.160;6.990;2023-07-16T00:09:47;236.65;;;227.15;;
52620;SDS011;38515;53.160;6.990;2023-07-16T00:12:13;260.85;;;250.25;;
52620;SDS011;38515;53.160;6.990;2023-07-16T00:14:39;225.13;;;215.75;;
52620;SDS011;38515;53.160;6.990;2023-07-16T00:17:04;291.42;;;278.92;;
52620;SDS011;38515;53.160;6.990;2023-07-16T00:19:30;256.25;;;245.70;;
52620;SDS011;38515;53.160;6.990;2023-07-16T00:21:56;287.48;;;274.90;;
52620;SDS011;38515;53.160;6.990;2023-07-16T00:24:22;359.77;;;343.10;;
52620;SDS011;38515;53.160;6.990;2023-07-16T00:26:47;318.08;;;303.80;;
52620;SDS011;38515;53.160;6.990;2023-07-16T00:29:13;367.80;;;351.33;;
52620;SDS011;38515;53.160;6.990;2023-07-16T00:31:39;232.98;;;222.60;;
52620;SDS011;38515;53.160;6.990;2023-07-16T00:34:05;253.60;;;242.90;;
52620;SDS011;38515;53.160;6.990;2023-07-16T00:36:31;341.58;;;326.75;;
52620;SDS011;38515;53.160;6.990;2023-07-16T00:38:57;369.42;;;352.67;;
52620;SDS011;38515;53.160;6.990;2023-07-16T00:41:22;284.45;;;270.23;;
52620;SDS011;38515;53.160;6.990;2023-07-16T00:43:48;200.98;;;192.27;;
52620;SDS011;38515;53.160;6.990;2023-07-16T00:46:14;299.73;;;287.08;;
52620;SDS011;38515;53.160;6.990;2023-07-16T00:48:41;267.45;;;256.08;;
52620;SDS011;38515;53.160;6.990;2023-07-16T00:51:07;241.40;;;231.07;;
52620;SDS011;38515;53.160;6.990;2023-07-16T00:53:34;193.93;;;185.57;;
52620;SDS011;38515;53.160;6.990;2023-07-16T00:56:00;242.43;;;231.68;;
52620;SDS011;38515;53.160;6.990;2023-07-16T00:58:26;193.45;;;185.20;;
52620;SDS011;38515;53.160;6.990;2023-07-16T01:00:52;229.45;;;219.80;;
52620;SDS011;38515;53.160;6.990;2023-07-16T01:03:18;220.68;;;210.73;;
52620;SDS011;38515;53.160;6.990;2023-07-16T01:06:00;266.42;;;255.00;;
52620;SDS011;38515;53.160;6.990;2023-07-16T01:11:45;218.43;;;208.65;;
52620;SDS011;38515;53.160;6.990;2023-07-16T01:14:13;249.55;;;238.68;;
52620;SDS011;38515;53.160;6.990;2023-07-16T01:16:41;196.05;;;187.57;;
52620;SDS011;38515;53.160;6.990;2023-07-16T01:19:07;196.27;;;188.02;;
52620;SDS011;38515;53.160;6.990;2023-07-16T01:32:12;251.73;;;241.18;;
52620;SDS011;38515;53.160;6.990;2023-07-16T01:34:39;257.90;;;247.00;;
52620;SDS011;38515;53.160;6.990;2023-07-16T01:37:06;200.88;;;192.20;;
52620;SDS011;38515;53.160;6.990;2023-07-16T01:39:32;200.75;;;192.20;;
52620;SDS011;38515;53.160;6.990;2023-07-16T01:41:58;116.90;;;111.90;;
52620;SDS011;38515;53.160;6.990;2023-07-16T01:44:25;265.90;;;254.13;;
52620;SDS011;38515;53.160;6.990;2023-07-16T01:47:00;206.10;;;197.10;;
52620;SDS011;38515;53.160;6.990;2023-07-16T01:49:32;195.63;;;187.70;;
52620;SDS011;38515;53.160;6.990;2023-07-16T01:51:59;200.63;;;192.20;;
52620;SDS011;38515;53.160;6.990;2023-07-16T01:54:26;258.45;;;247.00;;
52620;SDS011;38515;53.160;6.990;2023-07-16T01:56:51;189.73;;;181.88;;
52620;SDS011;38515;53.160;6.990;2023-07-16T01:59:17;227.60;;;217.45;;
52620;SDS011;38515;53.160;6.990;2023-07-16T02:01:43;170.73;;;163.73;;
52620;SDS011;38515;53.160;6.990;2023-07-16T02:04:09;173.13;;;165.75;;
52620;SDS011;38515;53.160;6.990;2023-07-16T02:06:35;284.92;;;272.48;;
52620;SDS011;38515;53.160;6.990;2023-07-16T02:09:03;264.52;;;253.40;;
52620;SDS011;38515;53.160;6.990;2023-07-16T02:11:28;152.80;;;145.98;;
52620;SDS011;38515;53.160;6.990;2023-07-16T02:13:54;176.57;;;169.13;;
52620;SDS011;38515;53.160;6.990;2023-07-16T02:16:20;240.40;;;230.35;;
52620;SDS011;38515;53.160;6.990;2023-07-16T02:18:46;328.63;;;313.27;;
52620;SDS011;38515;53.160;6.990;2023-07-16T02:21:12;167.57;;;160.40;;
52620;SDS011;38515;53.160;6.990;2023-07-16T02:23:37;195.85;;;187.88;;
52620;SDS011;38515;53.160;6.990;2023-07-16T02:26:03;235.63;;;225.25;;
52620;SDS011;38515;53.160;6.990;2023-07-16T02:28:30;235.05;;;224.73;;
52620;SDS011;38515;53.160;6.990;2023-07-16T02:30:56;215.93;;;206.70;;
52620;SDS011;38515;53.160;6.990;2023-07-16T02:33:23;205.50;;;196.75;;
52620;SDS011;38515;53.160;6.990;2023-07-16T02:35:49;212.20;;;203.80;;
52620;SDS011;38515;53.160;6.990;2023-07-16T02:38:17;224.85;;;215.38;;
52620;SDS011;38515;53.160;6.990;2023-07-16T02:40:46;283.85;;;271.08;;
52620;SDS011;38515;53.160;6.990;2023-07-16T02:43:13;255.13;;;244.10;;
52620;SDS011;38515;53.160;6.990;2023-07-16T02:45:40;315.00;;;301.17;;
52620;SDS011;38515;53.160;6.990;2023-07-16T02:48:06;263.88;;;252.93;;
52620;SDS011;38515;53.160;6.990;2023-07-16T02:50:36;350.52;;;334.73;;
52620;SDS011;38515;53.160;6.990;2023-07-16T02:53:06;343.95;;;329.33;;
52620;SDS011;38515;53.160;6.990;2023-07-16T02:55:32;362.92;;;346.13;;
52620;SDS011;38515;53.160;6.990;2023-07-16T02:57:59;469.42;;;445.90;;
52620;SDS011;38515;53.160;6.990;2023-07-16T03:00:29;428.08;;;406.63;;
52620;SDS011;38515;53.160;6.990;2023-07-16T03:02:55;372.35;;;354.92;;
52620;SDS011;38515;53.160;6.990;2023-07-16T03:05:21;383.30;;;364.10;;
52620;SDS011;38515;53.160;6.990;2023-07-16T03:07:47;377.80;;;358.88;;
52620;SDS011;38515;53.160;6.990;2023-07-16T03:10:13;330.88;;;315.65;;
52620;SDS011;38515;53.160;6.990;2023-07-16T03:12:39;425.88;;;404.58;;
52620;SDS011;38515;53.160;6.990;2023-07-16T03:15:05;372.02;;;354.70;;
52620;SDS011;38515;53.160;6.990;2023-07-16T03:17:31;348.48;;;332.58;;
52620;SDS011;38515;53.160;6.990;2023-07-16T03:19:57;335.25;;;319.60;;
52620;SDS011;38515;53.160;6.990;2023-07-16T03:22:22;380.80;;;362.27;;
52620;SDS011;38515;53.160;6.990;2023-07-16T03:24:49;277.40;;;265.10;;
52620;SDS011;38515;53.160;6.990;2023-07-16T03:27:15;279.25;;;267.50;;
52620;SDS011;38515;53.160;6.990;2023-07-16T03:29:40;316.83;;;302.25;;
52620;SDS011;38515;53.160;6.990;2023-07-16T03:32:06;416.13;;;395.67;;
52620;SDS011;38515;53.160;6.990;2023-07-16T03:34:32;425.20;;;404.45;;
52620;SDS011;38515;53.160;6.990;2023-07-16T03:36:58;374.70;;;356.63;;
52620;SDS011;38515;53.160;6.990;2023-07-16T03:39:24;355.05;;;338.02;;
52620;SDS011;38515;53.160;6.990;2023-07-16T03:41:50;343.95;;;328.50;;
52620;SDS011;38515;53.160;6.990;2023-07-16T03:44:16;356.13;;;339.70;;
52620;SDS011;38515;53.160;6.990;2023-07-16T03:46:41;362.08;;;345.35;;
52620;SDS011;38515;53.160;6.990;2023-07-16T03:49:07;375.48;;;357.30;;
52620;SDS011;38515;53.160;6.990;2023-07-16T03:51:33;305.98;;;291.33;;
52620;SDS011;38515;53.160;6.990;2023-07-16T03:54:00;372.50;;;355.38;;
52620;SDS011;38515;53.160;6.990;2023-07-16T03:56:25;351.77;;;336.05;;
52620;SDS011;38515;53.160;6.990;2023-07-16T03:58:52;322.48;;;307.58;;
52620;SDS011;38515;53.160;6.990;2023-07-16T04:01:18;376.40;;;358.58;;
52620;SDS011;38515;53.160;6.990;2023-07-16T04:03:43;388.25;;;370.20;;
52620;SDS011;38515;53.160;6.990;2023-07-16T04:06:09;374.02;;;356.02;;
52620;SDS011;38515;53.160;6.990;2023-07-16T04:08:36;387.92;;;369.67;;
52620;SDS011;38515;53.160;6.990;2023-07-16T04:11:03;294.02;;;281.15;;
52620;SDS011;38515;53.160;6.990;2023-07-16T04:13:30;344.90;;;329.75;;
52620;SDS011;38515;53.160;6.990;2023-07-16T04:15:56;369.73;;;352.70;;
52620;SDS011;38515;53.160;6.990;2023-07-16T04:18:25;363.90;;;347.40;;
52620;SDS011;38515;53.160;6.990;2023-07-16T04:20:52;358.33;;;341.70;;
52620;SDS011;38515;53.160;6.990;2023-07-16T04:23:18;366.88;;;349.80;;
52620;SDS011;38515;53.160;6.990;2023-07-16T04:25:44;383.67;;;364.45;;
52620;SDS011;38515;53.160;6.990;2023-07-16T04:28:10;443.30;;;421.48;;
52620;SDS011;38515;53.160;6.990;2023-07-16T04:30:37;327.58;;;311.92;;
52620;SDS011;38515;53.160;6.990;2023-07-16T04:33:03;432.88;;;412.20;;
52620;SDS011;38515;53.160;6.990;2023-07-16T04:35:29;385.83;;;367.95;;
52620;SDS011;38515;53.160;6.990;2023-07-16T04:37:55;438.38;;;417.00;;
52620;SDS011;38515;53.160;6.990;2023-07-16T04:40:21;430.27;;;408.92;;
52620;SDS011;38515;53.160;6.990;2023-07-16T04:42:47;397.35;;;378.10;;
52620;SDS011;38515;53.160;6.990;2023-07-16T04:45:13;468.30;;;444.05;;
52620;SDS011;38515;53.160;6.990;2023-07-16T04:47:39;548.40;;;519.33;;
52620;SDS011;38515;53.160;6.990;2023-07-16T04:50:05;369.10;;;352.40;;
52620;SDS011;38515;53.160;6.990;2023-07-16T04:52:31;426.65;;;405.88;;
52620;SDS011;38515;53.160;6.990;2023-07-16T04:54:57;525.35;;;497.48;;
52620;SDS011;38515;53.160;6.990;2023-07-16T04:57:23;450.38;;;427.95;;
52620;SDS011;38515;53.160;6.990;2023-07-16T04:59:49;426.42;;;405.42;;
52620;SDS011;38515;53.160;6.990;2023-07-16T05:02:15;521.90;;;493.58;;
52620;SDS011;38515;53.160;6.990;2023-07-16T05:04:42;520.85;;;492.63;;
52620;SDS011;38515;53.160;6.990;2023-07-16T05:07:09;480.80;;;456.92;;
52620;SDS011;38515;53.160;6.990;2023-07-16T05:09:35;432.15;;;410.58;;
52620;SDS011;38515;53.160;6.990;2023-07-16T05:12:01;414.85;;;394.63;;
52620;SDS011;38515;53.160;6.990;2023-07-16T05:14:28;521.10;;;492.95;;
52620;SDS011;38515;53.160;6.990;2023-07-16T05:16:54;467.17;;;443.40;;
52620;SDS011;38515;53.160;6.990;2023-07-16T05:19:20;601.47;;;568.10;;
52620;SDS011;38515;53.160;6.990;2023-07-16T05:21:46;527.75;;;499.17;;
52620;SDS011;38515;53.160;6.990;2023-07-16T05:24:12;552.95;;;523.20;;
52620;SDS011;38515;53.160;6.990;2023-07-16T05:26:38;449.10;;;425.30;;
52620;SDS011;38515;53.160;6.990;2023-07-16T05:29:04;546.33;;;516.67;;
52620;SDS011;38515;53.160;6.990;2023-07-16T05:31:30;499.80;;;473.00;;
52620;SDS011;38515;53.160;6.990;2023-07-16T05:33:56;463.08;;;439.17;;
52620;SDS011;38515;53.160;6.990;2023-07-16T05:36:22;530.65;;;501.67;;
52620;SDS011;38515;53.160;6.990;2023-07-16T05:38:48;536.95;;;507.50;;
52620;SDS011;38515;53.160;6.990;2023-07-16T05:41:14;495.00;;;469.38;;
52620;SDS011;38515;53.160;6.990;2023-07-16T05:43:39;500.80;;;474.92;;
52620;SDS011;38515;53.160;6.990;2023-07-16T05:46:05;476.85;;;451.98;;
52620;SDS011;38515;53.160;6.990;2023-07-16T05:48:31;353.10;;;337.45;;
52620;SDS011;38515;53.160;6.990;2023-07-16T05:50:57;307.00;;;291.63;;
52620;SDS011;38515;53.160;6.990;2023-07-16T05:53:23;449.90;;;424.85;;
52620;SDS011;38515;53.160;6.990;2023-07-16T05:55:49;345.05;;;329.17;;
52620;SDS011;38515;53.160;6.990;2023-07-16T05:58:16;442.55;;;419.95;;
52620;SDS011;38515;53.160;6.990;2023-07-16T06:00:42;277.42;;;265.20;;
52620;SDS011;38515;53.160;6.990;2023-07-16T06:03:08;464.48;;;439.75;;
52620;SDS011;38515;53.160;6.990;2023-07-16T06:05:34;537.30;;;508.92;;
52620;SDS011;38515;53.160;6.990;2023-07-16T06:08:02;278.58;;;265.90;;
52620;SDS011;38515;53.160;6.990;2023-07-16T06:10:28;272.17;;;259.58;;
52620;SDS011;38515;53.160;6.990;2023-07-16T06:12:54;321.92;;;308.05;;
52620;SDS011;38515;53.160;6.990;2023-07-16T06:15:20;275.50;;;263.83;;
52620;SDS011;38515;53.160;6.990;2023-07-16T06:17:46;250.73;;;239.60;;
52620;SDS011;38515;53.160;6.990;2023-07-16T06:20:11;264.50;;;252.77;;
52620;SDS011;38515;53.160;6.990;2023-07-16T06:22:37;438.33;;;415.05;;
52620;SDS011;38515;53.160;6.990;2023-07-16T06:25:03;317.70;;;301.80;;
52620;SDS011;38515;53.160;6.990;2023-07-16T06:27:32;399.88;;;380.30;;
52620;SDS011;38515;53.160;6.990;2023-07-16T06:29:58;448.05;;;424.42;;
52620;SDS011;38515;53.160;6.990;2023-07-16T06:32:24;392.20;;;372.45;;
52620;SDS011;38515;53.160;6.990;2023-07-16T06:34:49;442.13;;;418.75;;
52620;SDS011;38515;53.160;6.990;2023-07-16T06:37:15;459.65;;;434.52;;
52620;SDS011;38515;53.160;6.990;2023-07-16T06:39:41;436.48;;;413.88;;
52620;SDS011;38515;53.160;6.990;2023-07-16T06:42:07;351.92;;;334.83;;
52620;SDS011;38515;53.160;6.990;2023-07-16T06:44:33;264.52;;;252.32;;
52620;SDS011;38515;53.160;6.990;2023-07-16T06:46:59;280.38;;;267.65;;
52620;SDS011;38515;53.160;6.990;2023-07-16T06:49:24;301.45;;;287.42;;
52620;SDS011;38515;53.160;6.990;2023-07-16T06:51:50;325.98;;;310.50;;
52620;SDS011;38515;53.160;6.990;2023-07-16T06:54:16;303.70;;;288.90;;
52620;SDS011;38515;53.160;6.990;2023-07-16T06:56:42;383.05;;;364.75;;
52620;SDS011;38515;53.160;6.990;2023-07-16T06:59:08;314.70;;;299.30;;
52620;SDS011;38515;53.160;6.990;2023-07-16T07:01:34;410.45;;;388.70;;
52620;SDS011;38515;53.160;6.990;2023-07-16T07:04:00;357.17;;;339.25;;
52620;SDS011;38515;53.160;6.990;2023-07-16T07:06:25;443.90;;;421.83;;
52620;SDS011;38515;53.160;6.990;2023-07-16T07:08:51;456.98;;;433.17;;
52620;SDS011;38515;53.160;6.990;2023-07-16T07:11:17;378.52;;;358.38;;
52620;SDS011;38515;53.160;6.990;2023-07-16T07:13:43;464.60;;;438.83;;
52620;SDS011;38515;53.160;6.990;2023-07-16T07:16:09;415.02;;;394.38;;
52620;SDS011;38515;53.160;6.990;2023-07-16T07:18:38;444.30;;;419.48;;
52620;SDS011;38515;53.160;6.990;2023-07-16T07:21:04;431.77;;;411.33;;
52620;SDS011;38515;53.160;6.990;2023-07-16T07:23:30;462.80;;;439.20;;
52620;SDS011;38515;53.160;6.990;2023-07-16T07:25:56;428.00;;;407.65;;
52620;SDS011;38515;53.160;6.990;2023-07-16T07:28:22;394.85;;;374.90;;
52620;SDS011;38515;53.160;6.990;2023-07-16T07:30:48;493.27;;;467.80;;
52620;SDS011;38515;53.160;6.990;2023-07-16T07:33:14;493.52;;;467.77;;
52620;SDS011;38515;53.160;6.990;2023-07-16T07:35:41;499.90;;;474.67;;
52620;SDS011;38515;53.160;6.990;2023-07-16T07:38:06;485.25;;;461.00;;
52620;SDS011;38515;53.160;6.990;2023-07-16T07:40:32;498.00;;;471.17;;
52620;SDS011;38515;53.160;6.990;2023-07-16T07:42:58;457.27;;;432.33;;
52620;SDS011;38515;53.160;6.990;2023-07-16T07:45:25;524.45;;;496.33;;
52620;SDS011;38515;53.160;6.990;2023-07-16T07:47:51;367.60;;;349.33;;
52620;SDS011;38515;53.160;6.990;2023-07-16T07:50:17;413.27;;;392.25;;
52620;SDS011;38515;53.160;6.990;2023-07-16T07:52:43;509.70;;;481.55;;
52620;SDS011;38515;53.160;6.990;2023-07-16T07:55:09;452.15;;;429.17;;
52620;SDS011;38515;53.160;6.990;2023-07-16T07:57:35;476.65;;;451.20;;
52620;SDS011;38515;53.160;6.990;2023-07-16T08:00:01;422.85;;;401.48;;
52620;SDS011;38515;53.160;6.990;2023-07-16T08:02:27;429.52;;;407.45;;
52620;SDS011;38515;53.160;6.990;2023-07-16T08:04:53;419.73;;;395.90;;
52620;SDS011;38515;53.160;6.990;2023-07-16T08:07:20;512.58;;;481.98;;
52620;SDS011;38515;53.160;6.990;2023-07-16T08:09:50;470.15;;;444.15;;
52620;SDS011;38515;53.160;6.990;2023-07-16T08:12:16;535.80;;;506.83;;
52620;SDS011;38515;53.160;6.990;2023-07-16T08:14:42;421.15;;;398.33;;
52620;SDS011;38515;53.160;6.990;2023-07-16T08:17:08;409.40;;;384.40;;
52620;SDS011;38515;53.160;6.990;2023-07-16T08:19:34;426.42;;;406.50;;
52620;SDS011;38515;53.160;6.990;2023-07-16T08:22:00;349.27;;;330.98;;
52620;SDS011;38515;53.160;6.990;2023-07-16T08:24:26;395.85;;;375.35;;
52620;SDS011;38515;53.160;6.990;2023-07-16T08:26:52;380.27;;;359.30;;
52620;SDS011;38515;53.160;6.990;2023-07-16T08:29:17;490.92;;;464.63;;
52620;SDS011;38515;53.160;6.990;2023-07-16T08:31:43;502.83;;;476.45;;
52620;SDS011;38515;53.160;6.990;2023-07-16T08:34:09;534.58;;;506.98;;
52620;SDS011;38515;53.160;6.990;2023-07-16T08:36:36;522.63;;;495.80;;
52620;SDS011;38515;53.160;6.990;2023-07-16T08:39:03;439.27;;;418.13;;
52620;SDS011;38515;53.160;6.990;2023-07-16T08:41:29;435.92;;;414.20;;
52620;SDS011;38515;53.160;6.990;2023-07-16T08:43:55;443.42;;;421.13;;
52620;SDS011;38515;53.160;6.990;2023-07-16T08:46:22;417.67;;;397.38;;
52620;SDS011;38515;53.160;6.990;2023-07-16T08:48:48;442.00;;;419.30;;
52620;SDS011;38515;53.160;6.990;2023-07-16T08:51:15;396.20;;;377.27;;
52620;SDS011;38515;53.160;6.990;2023-07-16T08:53:42;379.10;;;361.27;;
52620;SDS011;38515;53.160;6.990;2023-07-16T08:56:09;384.73;;;366.92;;
52620;SDS011;38515;53.160;6.990;2023-07-16T08:58:35;367.55;;;350.42;;
52620;SDS011;38515;53.160;6.990;2023-07-16T09:01:02;413.15;;;393.52;;
52620;SDS011;38515;53.160;6.990;2023-07-16T09:03:30;432.23;;;411.02;;
52620;SDS011;38515;53.160;6.990;2023-07-16T09:05:56;348.40;;;331.63;;
52620;SDS011;38515;53.160;6.990;2023-07-16T09:08:22;450.30;;;426.95;;
52620;SDS011;38515;53.160;6.990;2023-07-16T09:10:56;416.20;;;394.95;;
52620;SDS011;38515;53.160;6.990;2023-07-16T09:13:23;467.88;;;444.88;;
52620;SDS011;38515;53.160;6.990;2023-07-16T09:15:53;376.40;;;357.33;;
52620;SDS011;38515;53.160;6.990;2023-07-16T09:18:26;364.25;;;347.48;;
52620;SDS011;38515;53.160;6.990;2023-07-16T09:20:56;367.55;;;350.55;;
52620;SDS011;38515;53.160;6.990;2023-07-16T09:23:26;493.38;;;467.08;;
52620;SDS011;38515;53.160;6.990;2023-07-16T09:25:55;331.05;;;315.67;;
52620;SDS011;38515;53.160;6.990;2023-07-16T09:28:21;446.23;;;422.73;;
52620;SDS011;38515;53.160;6.990;2023-07-16T09:30:48;408.67;;;388.60;;
52620;SDS011;38515;53.160;6.990;2023-07-16T09:33:20;281.20;;;267.08;;
52620;SDS011;38515;53.160;6.990;2023-07-16T09:35:48;348.88;;;330.02;;
52620;SDS011;38515;53.160;6.990;2023-07-16T09:38:15;333.95;;;315.85;;
52620;SDS011;38515;53.160;6.990;2023-07-16T09:40:41;372.25;;;351.45;;
52620;SDS011;38515;53.160;6.990;2023-07-16T09:43:08;439.67;;;414.20;;
52620;SDS011;38515;53.160;6.990;2023-07-16T09:45:34;406.52;;;386.83;;
52620;SDS011;38515;53.160;6.990;2023-07-16T09:48:01;409.65;;;387.40;;
52620;SDS011;38515;53.160;6.990;2023-07-16T09:50:33;416.27;;;392.73;;
52620;SDS011;38515;53.160;6.990;2023-07-16T09:53:01;461.15;;;433.55;;
52620;SDS011;38515;53.160;6.990;2023-07-16T09:55:30;439.52;;;416.02;;
52620;SDS011;38515;53.160;6.990;2023-07-16T09:57:58;498.30;;;469.95;;
52620;SDS011;38515;53.160;6.990;2023-07-16T10:00:29;453.67;;;429.52;;
52620;SDS011;38515;53.160;6.990;2023-07-16T10:02:57;505.13;;;474.17;;
52620;SDS011;38515;53.160;6.990;2023-07-16T10:05:25;314.73;;;299.80;;
52620;SDS011;38515;53.160;6.990;2023-07-16T10:07:54;391.42;;;372.25;;
52620;SDS011;38515;53.160;6.990;2023-07-16T10:10:25;325.02;;;309.92;;
52620;SDS011;38515;53.160;6.990;2023-07-16T10:13:06;353.50;;;336.65;;
52620;SDS011;38515;53.160;6.990;2023-07-16T10:15:33;501.92;;;475.27;;
52620;SDS011;38515;53.160;6.990;2023-07-16T10:17:59;304.98;;;291.10;;
52620;SDS011;38515;53.160;6.990;2023-07-16T10:20:32;411.15;;;390.65;;
52620;SDS011;38515;53.160;6.990;2023-07-16T10:25:39;462.38;;;436.45;;
52620;SDS011;38515;53.160;6.990;2023-07-16T10:28:06;476.15;;;449.20;;
52620;SDS011;38515;53.160;6.990;2023-07-16T10:30:33;571.38;;;535.15;;
52620;SDS011;38515;53.160;6.990;2023-07-16T10:33:03;406.10;;;386.55;;
52620;SDS011;38515;53.160;6.990;2023-07-16T10:35:36;319.05;;;304.33;;
52620;SDS011;38515;53.160;6.990;2023-07-16T10:38:06;325.15;;;310.35;;
52620;SDS011;38515;53.160;6.990;2023-07-16T10:40:32;444.98;;;420.77;;
52620;SDS011;38515;53.160;6.990;2023-07-16T10:42:58;386.50;;;366.80;;
52620;SDS011;38515;53.160;6.990;2023-07-16T10:45:25;464.38;;;439.38;;
52620;SDS011;38515;53.160;6.990;2023-07-16T10:47:52;565.15;;;534.42;;
52620;SDS011;38515;53.160;6.990;2023-07-16T10:50:19;163.13;;;155.63;;
52620;SDS011;38515;53.160;6.990;2023-07-16T10:52:50;389.45;;;370.90;;
52620;SDS011;38515;53.160;6.990;2023-07-16T10:55:20;474.80;;;449.67;;
52620;SDS011;38515;53.160;6.990;2023-07-16T10:57:49;211.00;;;201.43;;
52620;SDS011;38515;53.160;6.990;2023-07-16T11:00:16;405.58;;;382.85;;
52620;SDS011;38515;53.160;6.990;2023-07-16T11:02:43;431.38;;;409.45;;
52620;SDS011;38515;53.160;6.990;2023-07-16T11:05:11;346.30;;;330.88;;
52620;SDS011;38515;53.160;6.990;2023-07-16T11:07:37;428.52;;;407.65;;
52620;SDS011;38515;53.160;6.990;2023-07-16T11:10:07;481.60;;;456.80;;
52620;SDS011;38515;53.160;6.990;2023-07-16T11:12:33;440.15;;;417.25;;
52620;SDS011;38515;53.160;6.990;2023-07-16T11:14:59;418.65;;;397.75;;
52620;SDS011;38515;53.160;6.990;2023-07-16T11:17:25;311.50;;;298.05;;
52620;SDS011;38515;53.160;6.990;2023-07-16T11:19:52;349.77;;;334.33;;
52620;SDS011;38515;53.160;6.990;2023-07-16T11:22:19;272.45;;;260.55;;
52620;SDS011;38515;53.160;6.990;2023-07-16T11:24:49;225.57;;;216.30;;
52620;SDS011;38515;53.160;6.990;2023-07-16T11:27:23;293.13;;;279.92;;
52620;SDS011;38515;53.160;6.990;2023-07-16T11:29:55;251.35;;;240.82;;
52620;SDS011;38515;53.160;6.990;2023-07-16T11:32:26;255.63;;;245.13;;
52620;SDS011;38515;53.160;6.990;2023-07-16T11:35:02;332.38;;;317.27;;
52620;SDS011;38515;53.160;6.990;2023-07-16T11:37:31;278.77;;;266.38;;
52620;SDS011;38515;53.160;6.990;2023-07-16T11:40:00;263.55;;;252.32;;
52620;SDS011;38515;53.160;6.990;2023-07-16T11:42:36;203.43;;;195.13;;
52620;SDS011;38515;53.160;6.990;2023-07-16T11:45:15;244.55;;;234.50;;
52620;SDS011;38515;53.160;6.990;2023-07-16T11:47:54;278.23;;;265.45;;
52620;SDS011;38515;53.160;6.990;2023-07-16T11:50:20;255.65;;;244.48;;
52620;SDS011;38515;53.160;6.990;2023-07-16T11:52:52;212.18;;;203.60;;
52620;SDS011;38515;53.160;6.990;2023-07-16T11:55:19;220.32;;;211.05;;
52620;SDS011;38515;53.160;6.990;2023-07-16T11:57:45;201.93;;;193.30;;
52620;SDS011;38515;53.160;6.990;2023-07-16T12:00:11;183.02;;;175.45;;
52620;SDS011;38515;53.160;6.990;2023-07-16T12:02:37;222.30;;;212.95;;
52620;SDS011;38515;53.160;6.990;2023-07-16T12:05:03;276.27;;;264.00;;
52620;SDS011;38515;53.160;6.990;2023-07-16T12:07:36;205.07;;;196.57;;
52620;SDS011;38515;53.160;6.990;2023-07-16T12:10:03;296.05;;;282.02;;
52620;SDS011;38515;53.160;6.990;2023-07-16T12:12:31;158.80;;;151.80;;
52620;SDS011;38515;53.160;6.990;2023-07-16T12:15:06;178.80;;;170.60;;
52620;SDS011;38515;53.160;6.990;2023-07-16T12:17:33;258.48;;;246.88;;
52620;SDS011;38515;53.160;6.990;2023-07-16T12:19:59;259.85;;;248.88;;
52620;SDS011;38515;53.160;6.990;2023-07-16T12:22:26;235.00;;;225.35;;
52620;SDS011;38515;53.160;6.990;2023-07-16T12:24:52;225.18;;;216.00;;
52620;SDS011;38515;53.160;6.990;2023-07-16T12:27:18;164.48;;;157.40;;
52620;SDS011;38515;53.160;6.990;2023-07-16T12:29:48;197.95;;;189.65;;
52620;SDS011;38515;53.160;6.990;2023-07-16T12:32:15;273.55;;;261.65;;
52620;SDS011;38515;53.160;6.990;2023-07-16T12:34:41;236.48;;;226.07;;
52620;SDS011;38515;53.160;6.990;2023-07-16T12:37:07;158.07;;;151.10;;
52620;SDS011;38515;53.160;6.990;2023-07-16T12:39:33;152.68;;;146.52;;
52620;SDS011;38515;53.160;6.990;2023-07-16T12:41:58;150.05;;;143.60;;
52620;SDS011;38515;53.160;6.990;2023-07-16T12:44:24;138.55;;;132.70;;
52620;SDS011;38515;53.160;6.990;2023-07-16T12:46:50;119.15;;;113.93;;
52620;SDS011;38515;53.160;6.990;2023-07-16T12:49:16;193.70;;;185.40;;
52620;SDS011;38515;53.160;6.990;2023-07-16T12:51:42;189.10;;;181.32;;
52620;SDS011;38515;53.160;6.990;2023-07-16T12:54:08;217.65;;;208.65;;
52620;SDS011;38515;53.160;6.990;2023-07-16T12:56:33;177.15;;;169.73;;
52620;SDS011;38515;53.160;6.990;2023-07-16T12:58:59;170.93;;;164.10;;
52620;SDS011;38515;53.160;6.990;2023-07-16T13:01:25;180.65;;;173.18;;
52620;SDS011;38515;53.160;6.990;2023-07-16T13:03:51;136.95;;;131.10;;
52620;SDS011;38515;53.160;6.990;2023-07-16T13:06:17;163.65;;;156.55;;
52620;SDS011;38515;53.160;6.990;2023-07-16T13:08:43;158.13;;;151.43;;
52620;SDS011;38515;53.160;6.990;2023-07-16T13:11:09;124.38;;;119.10;;
52620;SDS011;38515;53.160;6.990;2023-07-16T13:13:34;178.50;;;170.98;;
52620;SDS011;38515;53.160;6.990;2023-07-16T13:16:00;131.10;;;125.25;;
52620;SDS011;38515;53.160;6.990;2023-07-16T13:18:26;249.10;;;236.77;;
52620;SDS011;38515;53.160;6.990;2023-07-16T13:20:52;105.28;;;100.78;;
52620;SDS011;38515;53.160;6.990;2023-07-16T13:23:18;128.20;;;122.38;;
52620;SDS011;38515;53.160;6.990;2023-07-16T13:25:49;226.30;;;216.52;;
52620;SDS011;38515;53.160;6.990;2023-07-16T13:28:17;160.02;;;153.15;;
52620;SDS011;38515;53.160;6.990;2023-07-16T13:30:43;235.93;;;224.13;;
52620;SDS011;38515;53.160;6.990;2023-07-16T13:33:09;288.90;;;276.85;;
52620;SDS011;38515;53.160;6.990;2023-07-16T13:35:35;303.77;;;291.45;;
52620;SDS011;38515;53.160;6.990;2023-07-16T13:38:04;309.20;;;295.42;;
52620;SDS011;38515;53.160;6.990;2023-07-16T13:40:30;313.77;;;300.50;;
52620;SDS011;38515;53.160;6.990;2023-07-16T13:42:56;286.00;;;273.88;;
52620;SDS011;38515;53.160;6.990;2023-07-16T13:45:22;364.85;;;348.50;;
52620;SDS011;38515;53.160;6.990;2023-07-16T13:47:48;342.60;;;326.98;;
52620;SDS011;38515;53.160;6.990;2023-07-16T13:50:18;264.30;;;252.15;;
52620;SDS011;38515;53.160;6.990;2023-07-16T13:52:44;315.00;;;301.73;;
52620;SDS011;38515;53.160;6.990;2023-07-16T13:55:10;154.90;;;148.02;;
52620;SDS011;38515;53.160;6.990;2023-07-16T13:57:36;213.85;;;204.82;;
52620;SDS011;38515;53.160;6.990;2023-07-16T14:00:02;162.60;;;155.65;;
52620;SDS011;38515;53.160;6.990;2023-07-16T14:02:29;262.50;;;250.70;;
52620;SDS011;38515;53.160;6.990;2023-07-16T14:04:55;415.55;;;395.13;;
52620;SDS011;38515;53.160;6.990;2023-07-16T14:07:22;373.83;;;356.65;;
52620;SDS011;38515;53.160;6.990;2023-07-16T14:09:48;224.48;;;214.35;;